createdAt,value
2022-11-12T15:23:15.594Z,5.00
2022-11-12T15:24:16.551Z,5.00
2022-11-12T15:25:16.574Z,5.20
2022-11-12T15:26:16.523Z,5.20
2022-11-12T15:27:16.512Z,5.80
2022-11-12T15:28:16.564Z,5.80
2022-11-12T15:29:16.485Z,5.50
2022-11-12T15:30:16.489Z,5.30
2022-11-12T15:31:16.480Z,5.10
2022-11-12T15:32:16.470Z,5.30
2022-11-12T15:33:16.448Z,5.30
2022-11-12T15:34:16.466Z,5.50
2022-11-12T15:35:16.423Z,5.60
2022-11-12T15:36:16.463Z,5.60
2022-11-12T15:37:16.399Z,5.70
2022-11-12T15:38:16.386Z,5.20
2022-11-12T15:39:16.396Z,5.20
2022-11-12T15:40:16.377Z,5.10
2022-11-12T15:41:16.364Z,5.40
2022-11-12T15:42:16.353Z,5.60
2022-11-12T15:43:16.330Z,5.80
2022-11-12T15:44:16.346Z,5.80
2022-11-12T15:45:16.321Z,5.90
2022-11-12T15:46:16.309Z,5.60
2022-11-12T15:47:16.284Z,5.40
2022-11-12T15:48:16.277Z,5.70
2022-11-12T15:49:16.291Z,5.40
2022-11-12T15:50:16.332Z,5.70
2022-11-12T15:51:16.242Z,5.90
2022-11-12T15:52:16.250Z,5.30
2022-11-12T15:53:16.267Z,5.30
2022-11-12T15:54:16.231Z,5.30
2022-11-12T15:55:16.200Z,5.80
2022-11-12T15:56:16.186Z,5.50
2022-11-12T15:57:16.176Z,5.20
2022-11-12T15:58:16.162Z,5.20
2022-11-12T15:59:16.178Z,5.50
2022-11-12T16:00:16.166Z,5.60
2022-11-12T16:01:16.178Z,5.00
2022-11-12T16:02:16.199Z,5.30
2022-11-12T16:03:16.107Z,5.20
2022-11-12T16:04:16.109Z,5.50
2022-11-12T16:05:16.114Z,4.90
2022-11-12T16:06:16.076Z,4.70
2022-11-12T16:07:16.137Z,4.80
2022-11-12T16:08:16.052Z,5.40
2022-11-12T16:09:16.044Z,5.30
2022-11-12T16:10:16.059Z,5.00
2022-11-12T16:11:16.022Z,5.70
2022-11-12T16:12:16.029Z,5.60
2022-11-12T16:13:16.020Z,7.90
2022-11-12T16:14:15.982Z,8.40
2022-11-12T16:15:16.018Z,7.70
2022-11-12T16:16:15.961Z,8.40
2022-11-12T16:17:15.980Z,9.20
2022-11-12T16:18:15.953Z,12.30
2022-11-12T16:19:15.930Z,12.00
2022-11-12T16:20:15.922Z,7.90
2022-11-12T16:21:20.633Z,7.50
2022-11-12T16:22:15.902Z,7.20
2022-11-12T16:23:15.893Z,7.10
2022-11-12T16:24:15.888Z,7.80
2022-11-12T16:25:15.864Z,8.20
2022-11-12T16:26:15.893Z,8.00
2022-11-12T16:27:15.841Z,8.10
2022-11-12T16:28:15.838Z,8.50
2022-11-12T16:29:15.824Z,8.60
2022-11-12T16:30:15.815Z,9.00
2022-11-12T16:31:15.889Z,9.20
2022-11-12T16:32:15.791Z,9.10
2022-11-12T16:33:15.786Z,9.00
2022-11-12T16:34:15.791Z,8.90
2022-11-12T16:35:15.793Z,9.00
2022-11-12T16:36:16.262Z,9.70
2022-11-12T16:37:15.749Z,9.00
2022-11-12T16:38:15.780Z,10.00
2022-11-12T16:39:15.718Z,10.20
2022-11-12T16:40:15.710Z,9.60
2022-11-12T16:41:15.723Z,10.00
2022-11-12T16:42:15.696Z,10.70
2022-11-12T16:43:15.675Z,10.30
2022-11-12T16:44:15.660Z,9.60
2022-11-12T16:45:15.640Z,10.40
2022-11-12T16:46:15.632Z,10.00
2022-11-12T16:47:15.765Z,9.80
2022-11-12T16:48:15.626Z,9.50
2022-11-12T16:49:15.595Z,9.50
2022-11-12T16:50:15.594Z,9.00
2022-11-12T16:51:15.581Z,8.70
2022-11-12T16:52:15.633Z,8.10
2022-11-12T16:53:15.600Z,9.30
2022-11-12T16:54:15.565Z,9.20
2022-11-12T16:55:15.565Z,9.30
2022-11-12T16:56:15.527Z,8.30
2022-11-12T16:57:15.554Z,9.00
2022-11-12T16:58:15.496Z,9.90
2022-11-12T16:59:15.499Z,10.40
2022-11-12T17:00:15.516Z,10.10
2022-11-12T17:01:15.603Z,9.90
2022-11-12T17:02:15.499Z,10.30
2022-11-12T17:03:15.493Z,10.80
2022-11-12T17:04:15.451Z,11.30
2022-11-12T17:05:15.415Z,12.70
2022-11-12T17:06:15.428Z,13.40
2022-11-12T17:07:15.551Z,12.40
2022-11-12T17:08:15.546Z,16.20
2022-11-12T17:09:15.414Z,15.40
2022-11-12T17:10:15.361Z,16.00
2022-11-12T17:11:15.355Z,14.00
2022-11-12T17:12:15.360Z,12.60
2022-11-12T17:13:15.331Z,11.90
2022-11-12T17:14:15.404Z,11.50
2022-11-12T17:15:16.103Z,10.10
2022-11-12T17:16:15.311Z,13.70
2022-11-12T17:17:15.335Z,9.00
2022-11-12T17:18:15.282Z,15.20
2022-11-12T17:19:15.304Z,12.30
2022-11-12T17:20:15.260Z,8.50
2022-11-12T17:21:15.240Z,8.20
2022-11-12T17:22:15.236Z,7.50
2022-11-12T17:23:15.238Z,7.20
2022-11-12T17:24:15.215Z,10.90
2022-11-12T17:25:15.234Z,13.60
2022-11-12T17:26:15.206Z,12.20
2022-11-12T17:27:15.189Z,13.00
2022-11-12T17:28:15.202Z,9.40
2022-11-12T17:29:15.179Z,9.80
2022-11-12T17:30:15.189Z,10.00
2022-11-12T17:31:15.166Z,10.30
2022-11-12T17:32:15.150Z,11.70
2022-11-12T17:33:15.103Z,10.60
2022-11-12T17:34:15.100Z,10.70
2022-11-12T17:35:15.092Z,11.40
2022-11-12T17:36:15.133Z,12.20
2022-11-12T17:37:15.067Z,11.60
2022-11-12T17:38:15.058Z,12.80
2022-11-12T17:39:15.065Z,11.80
2022-11-12T17:40:15.032Z,12.60
2022-11-12T17:41:15.053Z,12.70
2022-11-12T17:42:15.008Z,12.60
2022-11-12T17:43:15.001Z,14.10
2022-11-12T17:44:14.993Z,13.80
2022-11-12T17:45:15.016Z,14.30
2022-11-12T17:46:14.983Z,14.40
2022-11-12T17:47:14.986Z,14.10
2022-11-12T17:48:14.940Z,14.50
2022-11-12T17:49:14.942Z,14.40
2022-11-12T17:50:14.925Z,14.40
2022-11-12T17:51:14.939Z,14.30
2022-11-12T17:52:15.019Z,15.40
2022-11-12T17:53:14.884Z,16.10
2022-11-12T17:54:14.894Z,14.20
2022-11-12T17:55:14.928Z,15.20
2022-11-12T17:56:14.863Z,14.70
2022-11-12T17:57:14.880Z,15.30
2022-11-12T17:58:14.852Z,16.50
2022-11-12T17:59:14.885Z,14.40
2022-11-12T18:00:14.879Z,15.40
2022-11-12T18:01:14.828Z,14.90
2022-11-12T18:02:14.838Z,17.10
2022-11-12T18:03:14.773Z,16.40
2022-11-12T18:04:14.819Z,15.80
2022-11-12T18:05:14.762Z,16.20
2022-11-12T18:06:14.766Z,15.90
2022-11-12T18:07:14.826Z,16.10
2022-11-12T18:08:14.748Z,16.40
2022-11-12T18:09:14.745Z,14.90
2022-11-12T18:10:19.391Z,16.30
2022-11-12T18:11:14.710Z,16.10
2022-11-12T18:12:14.669Z,16.10
2022-11-12T18:13:14.724Z,16.00
2022-11-12T18:14:14.831Z,14.80
2022-11-12T18:15:15.223Z,15.50
2022-11-12T18:16:14.968Z,15.10
2022-11-12T18:17:14.625Z,15.30
2022-11-12T18:18:14.604Z,15.00
2022-11-12T18:19:14.620Z,14.90
2022-11-12T18:20:14.604Z,14.60
2022-11-12T18:21:14.574Z,14.60
2022-11-12T18:22:14.567Z,15.60
2022-11-12T18:23:14.545Z,15.10
2022-11-12T18:24:14.569Z,15.50
2022-11-12T18:25:14.582Z,16.30
2022-11-12T18:26:14.553Z,16.30
2022-11-12T18:27:14.542Z,15.50
2022-11-12T18:28:14.499Z,15.30
2022-11-12T18:29:14.506Z,15.00
2022-11-12T18:30:19.065Z,14.30
2022-11-12T18:31:14.459Z,14.80
2022-11-12T18:32:14.458Z,15.50
2022-11-12T18:33:14.444Z,16.70
2022-11-12T18:34:14.452Z,15.20
2022-11-12T18:35:14.409Z,16.00
2022-11-12T18:36:14.400Z,15.80
2022-11-12T18:37:14.396Z,16.00
2022-11-12T18:38:14.377Z,15.50
2022-11-12T18:39:14.397Z,16.10
2022-11-12T18:40:14.367Z,15.80
2022-11-12T18:41:14.344Z,16.00
2022-11-12T18:42:14.341Z,16.00
2022-11-12T18:43:14.324Z,15.30
2022-11-12T18:44:14.342Z,16.80
2022-11-12T18:45:14.301Z,16.20
2022-11-12T18:46:14.292Z,16.70
2022-11-12T18:47:14.279Z,15.60
2022-11-12T18:48:14.262Z,16.30
2022-11-12T18:49:14.282Z,16.40
2022-11-12T18:50:14.263Z,16.60
2022-11-12T18:51:14.245Z,15.80
2022-11-12T18:52:14.221Z,16.40
2022-11-12T18:53:14.207Z,15.50
2022-11-12T18:54:14.210Z,15.70
2022-11-12T18:55:14.206Z,16.10
2022-11-12T18:56:14.172Z,15.40
2022-11-12T18:57:14.168Z,16.10
2022-11-12T18:58:14.156Z,15.60
2022-11-12T18:59:14.149Z,15.00
2022-11-12T19:00:14.173Z,15.70
2022-11-12T19:01:14.139Z,16.40
2022-11-12T19:02:14.110Z,15.80
2022-11-12T19:03:14.096Z,16.10
2022-11-12T19:04:14.084Z,15.80
2022-11-12T19:05:14.125Z,21.60
2022-11-12T19:06:14.143Z,27.60
2022-11-12T19:07:14.243Z,17.70
2022-11-12T19:08:14.080Z,15.80
2022-11-12T19:09:14.032Z,16.80
2022-11-12T19:10:15.232Z,16.40
2022-11-12T19:11:14.033Z,15.90
2022-11-12T19:12:14.000Z,16.30
2022-11-12T19:13:13.984Z,16.30
2022-11-12T19:14:13.983Z,15.90
2022-11-12T19:15:13.960Z,17.40
2022-11-12T19:16:13.987Z,15.90
2022-11-12T19:17:13.942Z,15.60
2022-11-12T19:18:13.933Z,15.30
2022-11-12T19:19:13.914Z,15.50
2022-11-12T19:20:13.909Z,16.50
2022-11-12T19:21:13.918Z,16.70
2022-11-12T19:22:13.889Z,15.50
2022-11-12T19:23:13.870Z,16.50
2022-11-12T19:24:13.868Z,15.60
2022-11-12T19:25:13.851Z,17.00
2022-11-12T19:26:13.869Z,16.90
2022-11-12T19:27:13.833Z,15.40
2022-11-12T19:28:13.813Z,15.30
2022-11-12T19:29:13.806Z,15.60
2022-11-12T19:30:13.792Z,16.20
2022-11-12T19:31:13.786Z,15.90
2022-11-12T19:32:13.813Z,16.90
2022-11-12T19:33:13.772Z,17.30
2022-11-12T19:34:13.747Z,16.20
2022-11-12T19:35:13.744Z,15.00
2022-11-12T19:36:13.724Z,16.20
2022-11-12T19:38:13.718Z,16.80
2022-11-12T19:39:13.701Z,16.30
2022-11-12T19:40:13.678Z,18.30
2022-11-12T19:41:18.952Z,18.60
2022-11-12T19:42:13.662Z,18.90
2022-11-12T19:43:13.691Z,17.10
2022-11-12T19:44:13.641Z,17.20
2022-11-12T19:45:13.647Z,17.70
2022-11-12T19:46:13.648Z,17.50
2022-11-12T19:47:13.668Z,17.20
2022-11-12T19:48:13.621Z,18.00
2022-11-12T19:49:13.583Z,20.20
2022-11-12T19:50:13.574Z,18.00
2022-11-12T19:51:13.569Z,19.60
2022-11-12T19:52:13.603Z,18.50
2022-11-12T19:53:13.561Z,18.20
2022-11-12T19:54:13.526Z,16.10
2022-11-12T19:55:13.516Z,17.30
2022-11-12T19:56:13.509Z,16.50
2022-11-12T19:57:13.501Z,18.20
2022-11-12T19:58:13.519Z,18.00
2022-11-12T19:59:13.472Z,17.30
2022-11-12T20:00:13.463Z,17.80
2022-11-12T20:01:13.597Z,18.70
2022-11-12T20:02:13.436Z,17.80
2022-11-12T20:03:13.429Z,20.20
2022-11-12T20:04:13.439Z,18.90
2022-11-12T20:05:13.410Z,18.10
2022-11-12T20:06:13.443Z,17.30
2022-11-12T20:07:13.414Z,18.10
2022-11-12T20:08:13.395Z,18.20
2022-11-12T20:09:13.440Z,19.70
2022-11-12T20:10:13.371Z,18.20
2022-11-12T20:11:13.376Z,18.80
2022-11-12T20:12:13.358Z,18.70
2022-11-12T20:13:13.343Z,19.40
2022-11-12T20:14:14.285Z,18.20
2022-11-12T20:15:13.332Z,20.20
2022-11-12T20:16:13.299Z,21.50
2022-11-12T20:17:13.301Z,22.10
2022-11-12T20:18:13.287Z,20.30
2022-11-12T20:19:13.280Z,19.40
2022-11-12T20:20:13.257Z,21.00
2022-11-12T20:21:13.239Z,23.00
2022-11-12T20:22:13.223Z,20.00
2022-11-12T20:23:13.219Z,21.80
2022-11-12T20:24:13.255Z,22.10
2022-11-12T20:25:13.223Z,20.60
2022-11-12T20:26:13.188Z,22.00
2022-11-12T20:27:13.212Z,23.90
2022-11-12T20:28:13.201Z,21.80
2022-11-12T20:29:13.194Z,22.10
2022-11-12T20:30:13.199Z,20.60
2022-11-12T20:31:13.180Z,21.70
2022-11-12T20:32:13.113Z,21.00
2022-11-12T20:33:13.113Z,22.00
2022-11-12T20:34:13.162Z,20.50
2022-11-12T20:35:19.330Z,21.00
2022-11-12T20:36:13.139Z,20.60
2022-11-12T20:37:13.079Z,20.80
2022-11-12T20:38:13.105Z,19.80
2022-11-12T20:39:13.090Z,21.30
2022-11-12T20:40:13.023Z,19.70
2022-11-12T20:41:13.051Z,22.00
2022-11-12T20:42:13.037Z,19.80
2022-11-12T20:43:13.020Z,20.60
2022-11-12T20:44:13.024Z,20.50
2022-11-12T20:45:13.005Z,20.10
2022-11-12T20:46:12.963Z,19.40
2022-11-12T20:47:12.947Z,20.00
2022-11-12T20:48:12.934Z,19.40
2022-11-12T20:49:12.937Z,20.00
2022-11-12T20:50:12.960Z,19.30
2022-11-12T20:51:27.882Z,18.70
2022-11-12T20:52:12.945Z,18.30
2022-11-12T20:53:12.927Z,18.80
2022-11-12T20:54:12.942Z,18.10
2022-11-12T20:55:12.907Z,18.80
2022-11-12T20:56:12.922Z,17.90
2022-11-12T20:57:12.857Z,17.10
2022-11-12T20:58:12.857Z,17.60
2022-11-12T20:59:12.870Z,17.30
2022-11-12T21:00:14.325Z,17.90
2022-11-12T21:01:12.853Z,17.30
2022-11-12T21:02:12.826Z,18.00
2022-11-12T21:03:12.793Z,17.50
2022-11-12T21:04:12.796Z,17.30
2022-11-12T21:05:12.814Z,15.90
2022-11-12T21:06:12.757Z,16.50
2022-11-12T21:07:12.793Z,17.10
2022-11-12T21:08:12.821Z,18.70
2022-11-12T21:09:12.768Z,17.90
2022-11-12T21:10:12.739Z,16.10
2022-11-12T21:11:12.699Z,16.80
2022-11-12T21:12:12.720Z,16.60
2022-11-12T21:13:12.647Z,17.40
2022-11-12T21:14:12.663Z,17.00
2022-11-12T21:15:12.636Z,16.10
2022-11-12T21:16:12.690Z,15.50
2022-11-12T21:17:12.628Z,16.80
2022-11-12T21:18:13.244Z,15.40
2022-11-12T21:19:12.770Z,17.20
2022-11-12T21:20:12.676Z,16.70
2022-11-12T21:21:12.675Z,15.80
2022-11-12T21:22:12.568Z,16.20
2022-11-12T21:23:12.885Z,15.60
2022-11-12T21:24:12.775Z,16.10
2022-11-12T21:25:12.560Z,15.30
2022-11-12T21:26:13.168Z,16.00
2022-11-12T21:27:12.564Z,15.50
2022-11-12T21:28:12.575Z,15.00
2022-11-12T21:29:14.454Z,16.10
2022-11-12T21:30:12.530Z,15.60
2022-11-12T21:31:12.505Z,14.80
2022-11-12T21:32:12.551Z,14.90
2022-11-12T21:33:12.441Z,14.90
2022-11-12T21:34:12.471Z,15.20
2022-11-12T21:35:12.535Z,15.20
2022-11-12T21:36:16.307Z,15.60
2022-11-12T21:37:12.422Z,16.10
2022-11-12T21:38:12.428Z,16.10
2022-11-12T21:39:12.409Z,16.10
2022-11-12T21:40:12.415Z,15.90
2022-11-12T21:41:12.391Z,15.50
2022-11-12T21:42:12.369Z,16.10
2022-11-12T21:43:12.325Z,15.50
2022-11-12T21:44:12.360Z,16.30
2022-11-12T21:45:12.355Z,16.30
2022-11-12T21:46:12.302Z,15.90
2022-11-12T21:47:12.305Z,16.40
2022-11-12T21:48:12.303Z,16.00
2022-11-12T21:49:12.319Z,15.90
2022-11-12T21:50:12.346Z,15.70
2022-11-12T21:51:12.336Z,15.20
2022-11-12T21:52:12.228Z,15.60
2022-11-12T21:53:12.212Z,15.70
2022-11-12T21:54:12.227Z,15.90
2022-11-12T21:55:12.216Z,15.40
2022-11-12T21:56:12.224Z,15.20
2022-11-12T21:57:17.586Z,16.70
2022-11-12T21:58:12.170Z,18.80
2022-11-12T21:59:12.185Z,17.70
2022-11-12T22:00:40.446Z,16.40
2022-11-12T22:01:12.120Z,16.80
2022-11-12T22:02:12.206Z,18.00
2022-11-12T22:03:12.223Z,19.50
2022-11-12T22:04:17.933Z,17.40
2022-11-12T22:05:12.110Z,17.10
2022-11-12T22:06:12.082Z,16.30
2022-11-12T22:07:12.086Z,16.40
2022-11-12T22:08:12.093Z,17.40
2022-11-12T22:09:12.095Z,17.30
2022-11-12T22:10:12.028Z,15.80
2022-11-12T22:11:12.035Z,16.70
2022-11-12T22:12:12.051Z,14.60
2022-11-12T22:13:26.586Z,15.60
2022-11-12T22:14:12.041Z,14.80
2022-11-12T22:15:12.010Z,14.60
2022-11-12T22:16:11.995Z,15.10
2022-11-12T22:17:11.947Z,15.40
2022-11-12T22:18:11.963Z,14.60
2022-11-12T22:19:11.995Z,15.70
2022-11-12T22:20:12.067Z,14.30
2022-11-12T22:21:11.911Z,15.70
2022-11-12T22:22:11.918Z,15.30
2022-11-12T22:23:11.947Z,15.60
2022-11-12T22:24:11.963Z,15.00
2022-11-12T22:25:11.995Z,15.20
2022-11-12T22:26:11.897Z,15.90
2022-11-12T22:27:11.850Z,16.10
2022-11-12T22:28:11.980Z,16.70
2022-11-12T22:29:11.897Z,15.50
2022-11-12T22:30:11.887Z,15.90
2022-11-12T22:31:12.767Z,15.70
2022-11-12T22:32:11.799Z,16.40
2022-11-12T22:33:11.792Z,15.90
2022-11-12T22:34:11.812Z,16.30
2022-11-12T22:35:11.805Z,15.60
2022-11-12T22:36:11.776Z,15.10
2022-11-12T22:37:11.737Z,16.00
2022-11-12T22:38:11.742Z,15.60
2022-11-12T22:39:11.773Z,15.80
2022-11-12T22:40:13.592Z,14.10
2022-11-12T22:41:11.722Z,14.40
2022-11-12T22:42:11.716Z,14.60
2022-11-12T22:43:11.715Z,15.10
2022-11-12T22:44:12.275Z,14.60
2022-11-12T22:45:12.023Z,14.60
2022-11-12T22:46:11.645Z,15.00
2022-11-12T22:47:11.694Z,14.20
2022-11-12T22:48:11.653Z,14.40
2022-11-12T22:49:11.705Z,14.50
2022-11-12T22:50:11.589Z,14.40
2022-11-12T22:51:11.667Z,14.90
2022-11-12T22:52:11.618Z,16.00
2022-11-12T22:53:11.616Z,15.20
2022-11-12T22:54:11.620Z,15.40
2022-11-12T22:55:11.523Z,15.30
2022-11-12T22:56:11.511Z,14.90
2022-11-12T22:57:11.534Z,14.80
2022-11-12T22:58:11.534Z,14.20
2022-11-12T22:59:11.560Z,14.90
2022-11-12T23:00:11.527Z,15.80
2022-11-12T23:01:11.661Z,14.80
2022-11-12T23:02:11.447Z,14.90
2022-11-12T23:03:11.604Z,16.30
2022-11-12T23:04:11.456Z,15.10
2022-11-12T23:05:11.471Z,15.10
2022-11-12T23:06:11.432Z,15.80
2022-11-12T23:07:11.543Z,16.10
2022-11-12T23:08:11.369Z,15.60
2022-11-12T23:09:11.469Z,14.80
2022-11-12T23:10:11.349Z,15.00
2022-11-12T23:11:11.343Z,14.40
2022-11-12T23:12:11.344Z,15.00
2022-11-12T23:13:11.347Z,15.70
2022-11-12T23:14:11.380Z,14.60
2022-11-12T23:15:11.320Z,13.40
2022-11-12T23:16:11.304Z,13.60
2022-11-12T23:17:11.282Z,13.60
2022-11-12T23:18:11.286Z,15.10
2022-11-12T23:19:11.298Z,14.70
2022-11-12T23:20:11.272Z,15.30
2022-11-12T23:21:11.267Z,14.10
2022-11-12T23:22:11.293Z,14.60
2022-11-12T23:23:11.277Z,14.70
2022-11-12T23:24:11.333Z,15.20
2022-11-12T23:25:11.216Z,15.30
2022-11-12T23:26:11.217Z,15.50
2022-11-12T23:27:11.303Z,15.60
2022-11-12T23:28:11.216Z,14.70
2022-11-12T23:29:11.417Z,15.20
2022-11-12T23:30:11.189Z,14.70
2022-11-12T23:31:11.111Z,15.80
2022-11-12T23:32:11.202Z,15.40
2022-11-12T23:33:11.236Z,15.30
2022-11-12T23:34:11.133Z,14.80
2022-11-12T23:35:11.088Z,15.30
2022-11-12T23:36:11.407Z,15.30
2022-11-12T23:37:11.091Z,16.40
2022-11-12T23:38:11.303Z,16.10
2022-11-12T23:39:11.070Z,15.70
2022-11-12T23:40:11.072Z,14.60
2022-11-12T23:41:11.048Z,14.60
2022-11-12T23:42:11.189Z,15.30
2022-11-12T23:43:11.034Z,15.80
2022-11-12T23:44:11.059Z,14.80
2022-11-12T23:45:11.066Z,14.40
2022-11-12T23:46:10.965Z,14.90
2022-11-12T23:47:10.969Z,15.20
2022-11-12T23:48:10.965Z,14.20
2022-11-12T23:49:10.987Z,14.60
2022-11-12T23:50:11.092Z,14.60
2022-11-12T23:51:10.951Z,14.60
2022-11-12T23:52:11.014Z,14.10
2022-11-12T23:53:11.042Z,14.50
2022-11-12T23:54:11.750Z,13.60
2022-11-12T23:55:10.937Z,14.10
2022-11-12T23:56:10.874Z,13.60
2022-11-12T23:57:10.884Z,13.60
2022-11-12T23:58:10.864Z,14.90
2022-11-12T23:59:10.869Z,14.80
